sensor_id;sensor_type;location;lat;lon;timestamp;temperature;humidity
16116;DHT22;8162;47.104;15.432;2023-05-29T00:09:39;16.80;68.70
16116;DHT22;8162;47.104;15.432;2023-05-29T00:12:40;16.00;71.50
16116;DHT22;8162;47.104;15.432;2023-05-29T00:15:40;16.00;71.80
16116;DHT22;8162;47.104;15.432;2023-05-29T00:18:41;16.00;71.90
16116;DHT22;8162;47.104;15.432;2023-05-29T00:21:45;16.00;71.90
16116;DHT22;8162;47.104;15.432;2023-05-29T00:24:48;15.90;72.20
16116;DHT22;8162;47.104;15.432;2023-05-29T00:27:48;15.80;72.60
16116;DHT22;8162;47.104;15.432;2023-05-29T00:30:50;15.80;72.50
16116;DHT22;8162;47.104;15.432;2023-05-29T00:33:50;15.80;72.60
16116;DHT22;8162;47.104;15.432;2023-05-29T00:36:51;15.80;72.90
16116;DHT22;8162;47.104;15.432;2023-05-29T00:39:52;15.70;72.80
16116;DHT22;8162;47.104;15.432;2023-05-29T00:42:53;15.70;73.10
16116;DHT22;8162;47.104;15.432;2023-05-29T00:45:54;15.60;73.30
16116;DHT22;8162;47.104;15.432;2023-05-29T00:48:54;15.60;73.40
16116;DHT22;8162;47.104;15.432;2023-05-29T00:51:56;15.60;73.60
16116;DHT22;8162;47.104;15.432;2023-05-29T00:54:57;15.60;72.70
16116;DHT22;8162;47.104;15.432;2023-05-29T00:58:00;15.60;72.20
16116;DHT22;8162;47.104;15.432;2023-05-29T01:01:02;15.60;72.50
16116;DHT22;8162;47.104;15.432;2023-05-29T01:04:05;15.60;72.80
16116;DHT22;8162;47.104;15.432;2023-05-29T03:44:52;15.60;73.30
16116;DHT22;8162;47.104;15.432;2023-05-29T06:16:02;15.80;79.00
16116;DHT22;8162;47.104;15.432;2023-05-29T06:19:03;24.00;50.00
16116;DHT22;8162;47.104;15.432;2023-05-29T06:22:05;15.80;77.40
16116;DHT22;8162;47.104;15.432;2023-05-29T06:25:06;15.90;75.00
16116;DHT22;8162;47.104;15.432;2023-05-29T06:28:07;16.00;74.80
16116;DHT22;8162;47.104;15.432;2023-05-29T06:31:08;16.10;74.10
16116;DHT22;8162;47.104;15.432;2023-05-29T06:34:08;16.10;74.00
16116;DHT22;8162;47.104;15.432;2023-05-29T06:37:09;16.20;73.90
16116;DHT22;8162;47.104;15.432;2023-05-29T06:40:10;16.20;74.00
16116;DHT22;8162;47.104;15.432;2023-05-29T06:43:11;16.20;74.10
16116;DHT22;8162;47.104;15.432;2023-05-29T06:46:12;16.30;73.50
16116;DHT22;8162;47.104;15.432;2023-05-29T06:49:13;16.40;73.20
16116;DHT22;8162;47.104;15.432;2023-05-29T06:52:13;16.50;72.50
16116;DHT22;8162;47.104;15.432;2023-05-29T06:55:14;16.70;72.30
16116;DHT22;8162;47.104;15.432;2023-05-29T06:58:14;16.70;71.90
16116;DHT22;8162;47.104;15.432;2023-05-29T07:01:15;16.80;71.80
16116;DHT22;8162;47.104;15.432;2023-05-29T07:04:18;16.80;71.40
16116;DHT22;8162;47.104;15.432;2023-05-29T07:07:19;16.90;70.90
16116;DHT22;8162;47.104;15.432;2023-05-29T07:10:20;17.00;70.10
16116;DHT22;8162;47.104;15.432;2023-05-29T07:13:21;17.00;69.20
16116;DHT22;8162;47.104;15.432;2023-05-29T07:16:21;17.10;70.10
16116;DHT22;8162;47.104;15.432;2023-05-29T07:19:22;17.20;69.60
16116;DHT22;8162;47.104;15.432;2023-05-29T07:22:23;17.20;69.10
16116;DHT22;8162;47.104;15.432;2023-05-29T07:25:24;17.30;69.00
16116;DHT22;8162;47.104;15.432;2023-05-29T07:28:24;17.40;69.10
16116;DHT22;8162;47.104;15.432;2023-05-29T07:31:25;17.40;69.10
16116;DHT22;8162;47.104;15.432;2023-05-29T07:34:26;17.50;68.00
16116;DHT22;8162;47.104;15.432;2023-05-29T07:37:26;17.70;67.10
16116;DHT22;8162;47.104;15.432;2023-05-29T07:40:27;17.80;65.00
16116;DHT22;8162;47.104;15.432;2023-05-29T07:43:28;17.90;63.20
16116;DHT22;8162;47.104;15.432;2023-05-29T07:46:28;18.00;62.90
16116;DHT22;8162;47.104;15.432;2023-05-29T07:49:29;18.00;63.60
16116;DHT22;8162;47.104;15.432;2023-05-29T07:52:30;18.00;61.00
16116;DHT22;8162;47.104;15.432;2023-05-29T07:55:31;18.00;60.80
16116;DHT22;8162;47.104;15.432;2023-05-29T07:58:31;18.00;61.60
16116;DHT22;8162;47.104;15.432;2023-05-29T08:01:32;18.10;62.50
16116;DHT22;8162;47.104;15.432;2023-05-29T08:04:34;18.10;61.90
16116;DHT22;8162;47.104;15.432;2023-05-29T08:07:36;18.20;62.10
16116;DHT22;8162;47.104;15.432;2023-05-29T08:10:37;18.30;61.70
16116;DHT22;8162;47.104;15.432;2023-05-29T08:13:38;18.30;61.40
16116;DHT22;8162;47.104;15.432;2023-05-29T08:16:38;18.40;62.30
16116;DHT22;8162;47.104;15.432;2023-05-29T08:19:39;18.50;62.70
16116;DHT22;8162;47.104;15.432;2023-05-29T08:22:40;18.50;62.70
16116;DHT22;8162;47.104;15.432;2023-05-29T08:25:40;18.60;62.60
16116;DHT22;8162;47.104;15.432;2023-05-29T08:28:41;18.60;62.50
16116;DHT22;8162;47.104;15.432;2023-05-29T08:31:42;18.70;62.80
16116;DHT22;8162;47.104;15.432;2023-05-29T08:34:43;18.80;62.80
16116;DHT22;8162;47.104;15.432;2023-05-29T08:37:45;18.90;62.20
16116;DHT22;8162;47.104;15.432;2023-05-29T08:40:47;19.00;63.10
16116;DHT22;8162;47.104;15.432;2023-05-29T08:43:48;19.10;61.90
16116;DHT22;8162;47.104;15.432;2023-05-29T08:46:55;19.20;60.10
16116;DHT22;8162;47.104;15.432;2023-05-29T08:49:56;19.30;59.90
16116;DHT22;8162;47.104;15.432;2023-05-29T08:52:58;19.40;58.10
16116;DHT22;8162;47.104;15.432;2023-05-29T08:56:00;19.50;60.00
16116;DHT22;8162;47.104;15.432;2023-05-29T08:59:02;19.60;56.80
16116;DHT22;8162;47.104;15.432;2023-05-29T09:02:03;19.80;55.00
16116;DHT22;8162;47.104;15.432;2023-05-29T09:05:04;19.90;56.60
16116;DHT22;8162;47.104;15.432;2023-05-29T09:08:08;19.90;58.20
16116;DHT22;8162;47.104;15.432;2023-05-29T09:11:10;19.90;57.30
16116;DHT22;8162;47.104;15.432;2023-05-29T09:14:39;19.90;56.70
16116;DHT22;8162;47.104;15.432;2023-05-29T09:17:41;19.90;57.70
16116;DHT22;8162;47.104;15.432;2023-05-29T09:20:41;20.00;60.30
16116;DHT22;8162;47.104;15.432;2023-05-29T09:23:42;20.00;60.80
16116;DHT22;8162;47.104;15.432;2023-05-29T09:26:51;20.10;55.50
16116;DHT22;8162;47.104;15.432;2023-05-29T09:29:51;20.30;53.00
16116;DHT22;8162;47.104;15.432;2023-05-29T09:32:53;20.50;53.30
16116;DHT22;8162;47.104;15.432;2023-05-29T09:35:54;20.50;55.10
16116;DHT22;8162;47.104;15.432;2023-05-29T09:38:54;20.60;55.70
16116;DHT22;8162;47.104;15.432;2023-05-29T09:41:55;20.70;55.90
16116;DHT22;8162;47.104;15.432;2023-05-29T09:44:56;20.90;53.70
16116;DHT22;8162;47.104;15.432;2023-05-29T09:47:58;21.10;54.40
16116;DHT22;8162;47.104;15.432;2023-05-29T09:51:02;21.10;55.20
16116;DHT22;8162;47.104;15.432;2023-05-29T09:54:16;21.30;53.50
16116;DHT22;8162;47.104;15.432;2023-05-29T09:57:17;21.30;54.80
16116;DHT22;8162;47.104;15.432;2023-05-29T10:00:18;21.50;50.70
16116;DHT22;8162;47.104;15.432;2023-05-29T10:03:20;21.40;51.70
16116;DHT22;8162;47.104;15.432;2023-05-29T10:06:22;21.30;52.50
16116;DHT22;8162;47.104;15.432;2023-05-29T10:09:25;21.30;53.60
16116;DHT22;8162;47.104;15.432;2023-05-29T10:12:27;21.20;54.00
16116;DHT22;8162;47.104;15.432;2023-05-29T10:15:31;21.30;54.30
16116;DHT22;8162;47.104;15.432;2023-05-29T10:18:43;21.40;51.90
16116;DHT22;8162;47.104;15.432;2023-05-29T10:21:44;21.50;50.30
16116;DHT22;8162;47.104;15.432;2023-05-29T10:24:46;21.60;53.30
16116;DHT22;8162;47.104;15.432;2023-05-29T10:27:48;21.70;55.10
16116;DHT22;8162;47.104;15.432;2023-05-29T10:30:54;21.80;53.40
16116;DHT22;8162;47.104;15.432;2023-05-29T10:40:30;22.20;50.30
16116;DHT22;8162;47.104;15.432;2023-05-29T10:43:32;22.30;51.20
16116;DHT22;8162;47.104;15.432;2023-05-29T10:49:49;22.50;50.60
16116;DHT22;8162;47.104;15.432;2023-05-29T10:52:51;22.50;52.80
16116;DHT22;8162;47.104;15.432;2023-05-29T10:55:53;22.60;53.10
16116;DHT22;8162;47.104;15.432;2023-05-29T10:58:55;22.80;53.50
16116;DHT22;8162;47.104;15.432;2023-05-29T11:01:57;23.00;53.50
16116;DHT22;8162;47.104;15.432;2023-05-29T11:05:05;23.20;52.40
16116;DHT22;8162;47.104;15.432;2023-05-29T11:08:06;23.40;52.30
16116;DHT22;8162;47.104;15.432;2023-05-29T11:11:07;23.50;52.10
16116;DHT22;8162;47.104;15.432;2023-05-29T11:14:11;23.70;49.70
16116;DHT22;8162;47.104;15.432;2023-05-29T11:17:52;24.00;50.20
16116;DHT22;8162;47.104;15.432;2023-05-29T11:20:57;24.00;46.80
16116;DHT22;8162;47.104;15.432;2023-05-29T11:24:03;24.00;48.70
16116;DHT22;8162;47.104;15.432;2023-05-29T11:27:05;23.90;48.00
16116;DHT22;8162;47.104;15.432;2023-05-29T11:30:08;23.60;49.20
16116;DHT22;8162;47.104;15.432;2023-05-29T11:33:19;23.40;49.60
16116;DHT22;8162;47.104;15.432;2023-05-29T11:36:21;23.20;50.30
16116;DHT22;8162;47.104;15.432;2023-05-29T11:39:22;23.10;51.50
16116;DHT22;8162;47.104;15.432;2023-05-29T11:42:23;23.00;49.20
16116;DHT22;8162;47.104;15.432;2023-05-29T11:45:24;23.10;46.20
16116;DHT22;8162;47.104;15.432;2023-05-29T11:48:26;23.20;46.50
16116;DHT22;8162;47.104;15.432;2023-05-29T11:51:27;23.80;45.20
16116;DHT22;8162;47.104;15.432;2023-05-29T11:54:27;24.20;44.50
16116;DHT22;8162;47.104;15.432;2023-05-29T11:57:28;24.20;46.70
16116;DHT22;8162;47.104;15.432;2023-05-29T12:00:35;24.70;46.90
16116;DHT22;8162;47.104;15.432;2023-05-29T12:03:42;25.20;45.50
16116;DHT22;8162;47.104;15.432;2023-05-29T12:06:43;25.20;45.20
16116;DHT22;8162;47.104;15.432;2023-05-29T12:09:45;24.00;50.00
16116;DHT22;8162;47.104;15.432;2023-05-29T12:12:57;26.70;43.40
16116;DHT22;8162;47.104;15.432;2023-05-29T12:16:02;27.90;38.30
16116;DHT22;8162;47.104;15.432;2023-05-29T12:19:04;29.00;36.30
16116;DHT22;8162;47.104;15.432;2023-05-29T12:22:05;29.50;36.90
16116;DHT22;8162;47.104;15.432;2023-05-29T12:25:21;29.20;36.70
16116;DHT22;8162;47.104;15.432;2023-05-29T12:28:22;28.80;38.30
16116;DHT22;8162;47.104;15.432;2023-05-29T12:31:29;29.40;38.20
16116;DHT22;8162;47.104;15.432;2023-05-29T12:34:36;30.70;36.30
16116;DHT22;8162;47.104;15.432;2023-05-29T12:37:45;31.40;34.90
16116;DHT22;8162;47.104;15.432;2023-05-29T12:40:48;30.90;36.90
16116;DHT22;8162;47.104;15.432;2023-05-29T12:43:52;30.10;37.30
16116;DHT22;8162;47.104;15.432;2023-05-29T12:46:56;30.10;38.00
16116;DHT22;8162;47.104;15.432;2023-05-29T12:49:57;31.50;34.30
16116;DHT22;8162;47.104;15.432;2023-05-29T12:53:08;32.80;31.70
16116;DHT22;8162;47.104;15.432;2023-05-29T12:56:10;33.40;33.20
16116;DHT22;8162;47.104;15.432;2023-05-29T13:05:13;36.90;28.10
16116;DHT22;8162;47.104;15.432;2023-05-29T13:08:14;36.70;28.30
16116;DHT22;8162;47.104;15.432;2023-05-29T13:11:15;36.90;28.50
16116;DHT22;8162;47.104;15.432;2023-05-29T13:17:16;37.20;26.00
16116;DHT22;8162;47.104;15.432;2023-05-29T13:20:18;37.50;27.80
16116;DHT22;8162;47.104;15.432;2023-05-29T13:23:19;38.00;29.60
16116;DHT22;8162;47.104;15.432;2023-05-29T13:26:20;37.50;30.30
16116;DHT22;8162;47.104;15.432;2023-05-29T13:29:22;35.80;28.30
16116;DHT22;8162;47.104;15.432;2023-05-29T13:32:23;34.20;31.20
16116;DHT22;8162;47.104;15.432;2023-05-29T13:35:23;32.80;32.70
16116;DHT22;8162;47.104;15.432;2023-05-29T13:38:24;31.80;35.00
16116;DHT22;8162;47.104;15.432;2023-05-29T13:44:26;31.10;36.80
16116;DHT22;8162;47.104;15.432;2023-05-29T13:47:26;31.60;36.20
16116;DHT22;8162;47.104;15.432;2023-05-29T13:50:29;32.00;33.60
16116;DHT22;8162;47.104;15.432;2023-05-29T13:53:29;24.00;50.00
16116;DHT22;8162;47.104;15.432;2023-05-29T13:56:30;32.20;34.30
16116;DHT22;8162;47.104;15.432;2023-05-29T13:59:31;32.10;31.20
16116;DHT22;8162;47.104;15.432;2023-05-29T14:02:32;32.00;32.50
16116;DHT22;8162;47.104;15.432;2023-05-29T14:05:33;32.30;32.00
16116;DHT22;8162;47.104;15.432;2023-05-29T14:08:33;32.20;31.00
16116;DHT22;8162;47.104;15.432;2023-05-29T14:11:34;32.00;29.00
16116;DHT22;8162;47.104;15.432;2023-05-29T14:14:37;31.80;32.10
16116;DHT22;8162;47.104;15.432;2023-05-29T14:17:38;31.40;33.50
16116;DHT22;8162;47.104;15.432;2023-05-29T14:20:39;31.40;34.10
16116;DHT22;8162;47.104;15.432;2023-05-29T14:23:40;31.60;35.30
16116;DHT22;8162;47.104;15.432;2023-05-29T14:29:43;31.20;34.00
16116;DHT22;8162;47.104;15.432;2023-05-29T14:32:46;30.70;38.20
16116;DHT22;8162;47.104;15.432;2023-05-29T14:35:47;30.50;35.00
16116;DHT22;8162;47.104;15.432;2023-05-29T14:38:47;30.50;38.20
16116;DHT22;8162;47.104;15.432;2023-05-29T14:41:49;30.20;38.10
16116;DHT22;8162;47.104;15.432;2023-05-29T14:44:50;30.00;34.90
16116;DHT22;8162;47.104;15.432;2023-05-29T14:47:51;29.90;38.10
16116;DHT22;8162;47.104;15.432;2023-05-29T14:50:51;29.50;38.00
16116;DHT22;8162;47.104;15.432;2023-05-29T14:53:52;29.40;38.00
16116;DHT22;8162;47.104;15.432;2023-05-29T14:56:53;29.30;39.10
16116;DHT22;8162;47.104;15.432;2023-05-29T15:02:54;28.70;40.80
16116;DHT22;8162;47.104;15.432;2023-05-29T15:05:57;28.60;41.50
16116;DHT22;8162;47.104;15.432;2023-05-29T15:08:58;28.50;37.90
16116;DHT22;8162;47.104;15.432;2023-05-29T15:12:01;28.30;39.70
16116;DHT22;8162;47.104;15.432;2023-05-29T15:15:03;28.10;40.60
16116;DHT22;8162;47.104;15.432;2023-05-29T15:18:04;28.00;39.50
16116;DHT22;8162;47.104;15.432;2023-05-29T15:21:04;28.00;37.60
16116;DHT22;8162;47.104;15.432;2023-05-29T15:24:06;27.90;37.20
16116;DHT22;8162;47.104;15.432;2023-05-29T15:27:06;27.70;37.30
16116;DHT22;8162;47.104;15.432;2023-05-29T15:30:14;27.40;37.60
16116;DHT22;8162;47.104;15.432;2023-05-29T15:33:15;27.20;37.60
16116;DHT22;8162;47.104;15.432;2023-05-29T15:36:16;27.00;38.80
16116;DHT22;8162;47.104;15.432;2023-05-29T15:39:16;26.80;39.80
16116;DHT22;8162;47.104;15.432;2023-05-29T15:42:17;26.80;40.20
16116;DHT22;8162;47.104;15.432;2023-05-29T15:45:18;26.70;39.50
16116;DHT22;8162;47.104;15.432;2023-05-29T15:48:19;26.50;38.80
16116;DHT22;8162;47.104;15.432;2023-05-29T15:51:20;26.30;39.60
16116;DHT22;8162;47.104;15.432;2023-05-29T15:54:21;26.00;39.40
16116;DHT22;8162;47.104;15.432;2023-05-29T15:57:22;26.00;41.20
16116;DHT22;8162;47.104;15.432;2023-05-29T16:00:22;25.90;41.10
16116;DHT22;8162;47.104;15.432;2023-05-29T16:03:23;25.90;40.30
16116;DHT22;8162;47.104;15.432;2023-05-29T16:06:24;25.80;40.70
16116;DHT22;8162;47.104;15.432;2023-05-29T16:09:26;25.90;41.60
16116;DHT22;8162;47.104;15.432;2023-05-29T16:12:27;25.90;41.80
16116;DHT22;8162;47.104;15.432;2023-05-29T16:15:29;25.90;40.90
16116;DHT22;8162;47.104;15.432;2023-05-29T16:21:31;25.90;41.60
16116;DHT22;8162;47.104;15.432;2023-05-29T16:24:33;25.60;40.40
16116;DHT22;8162;47.104;15.432;2023-05-29T16:27:33;25.50;41.10
16116;DHT22;8162;47.104;15.432;2023-05-29T16:30:34;24.00;50.00
16116;DHT22;8162;47.104;15.432;2023-05-29T16:33:35;25.30;40.50
16116;DHT22;8162;47.104;15.432;2023-05-29T16:36:36;25.00;41.60
16116;DHT22;8162;47.104;15.432;2023-05-29T16:39:37;24.80;42.40
16116;DHT22;8162;47.104;15.432;2023-05-29T16:42:38;24.60;43.00
16116;DHT22;8162;47.104;15.432;2023-05-29T16:45:38;24.40;42.70
16116;DHT22;8162;47.104;15.432;2023-05-29T16:48:39;24.20;42.50
16116;DHT22;8162;47.104;15.432;2023-05-29T16:51:40;24.20;42.70
16116;DHT22;8162;47.104;15.432;2023-05-29T16:54:41;24.00;43.00
16116;DHT22;8162;47.104;15.432;2023-05-29T16:57:43;24.00;43.20
16116;DHT22;8162;47.104;15.432;2023-05-29T17:00:43;23.90;42.00
16116;DHT22;8162;47.104;15.432;2023-05-29T17:03:44;23.90;43.00
16116;DHT22;8162;47.104;15.432;2023-05-29T17:06:45;23.90;42.80
16116;DHT22;8162;47.104;15.432;2023-05-29T17:09:46;23.80;43.30
16116;DHT22;8162;47.104;15.432;2023-05-29T17:12:46;23.60;43.30
16116;DHT22;8162;47.104;15.432;2023-05-29T17:15:47;23.60;43.70
16116;DHT22;8162;47.104;15.432;2023-05-29T17:18:48;23.50;43.30
16116;DHT22;8162;47.104;15.432;2023-05-29T17:21:48;23.30;43.70
16116;DHT22;8162;47.104;15.432;2023-05-29T17:24:49;23.20;42.90
16116;DHT22;8162;47.104;15.432;2023-05-29T17:27:50;23.00;43.50
16116;DHT22;8162;47.104;15.432;2023-05-29T17:30:50;22.90;44.90
16116;DHT22;8162;47.104;15.432;2023-05-29T17:33:51;22.80;45.10
16116;DHT22;8162;47.104;15.432;2023-05-29T17:36:52;22.60;46.10
16116;DHT22;8162;47.104;15.432;2023-05-29T17:39:53;22.50;46.50
16116;DHT22;8162;47.104;15.432;2023-05-29T17:42:54;22.20;44.60
16116;DHT22;8162;47.104;15.432;2023-05-29T17:45:55;22.20;46.00
16116;DHT22;8162;47.104;15.432;2023-05-29T17:48:57;22.00;46.10
16116;DHT22;8162;47.104;15.432;2023-05-29T17:51:57;21.90;45.70
16116;DHT22;8162;47.104;15.432;2023-05-29T17:54:58;21.90;45.70
16116;DHT22;8162;47.104;15.432;2023-05-29T17:57:59;21.70;45.50
16116;DHT22;8162;47.104;15.432;2023-05-29T18:04:02;24.00;50.00
16116;DHT22;8162;47.104;15.432;2023-05-29T18:07:03;21.50;47.70
16116;DHT22;8162;47.104;15.432;2023-05-29T18:10:05;21.40;47.90
16116;DHT22;8162;47.104;15.432;2023-05-29T18:13:06;21.30;49.40
16116;DHT22;8162;47.104;15.432;2023-05-29T18:16:07;21.20;48.50
16116;DHT22;8162;47.104;15.432;2023-05-29T18:19:09;21.10;49.10
16116;DHT22;8162;47.104;15.432;2023-05-29T18:22:11;21.00;49.10
16116;DHT22;8162;47.104;15.432;2023-05-29T18:25:12;21.00;48.80
16116;DHT22;8162;47.104;15.432;2023-05-29T18:28:14;20.90;49.30
16116;DHT22;8162;47.104;15.432;2023-05-29T18:31:15;20.80;48.70
16116;DHT22;8162;47.104;15.432;2023-05-29T18:34:18;20.70;47.80
16116;DHT22;8162;47.104;15.432;2023-05-29T18:37:19;20.60;49.10
16116;DHT22;8162;47.104;15.432;2023-05-29T18:40:20;20.60;49.50
16116;DHT22;8162;47.104;15.432;2023-05-29T18:43:21;20.50;49.50
16116;DHT22;8162;47.104;15.432;2023-05-29T18:46:22;20.40;51.20
16116;DHT22;8162;47.104;15.432;2023-05-29T18:49:22;20.30;50.80
16116;DHT22;8162;47.104;15.432;2023-05-29T18:52:24;20.20;51.10
16116;DHT22;8162;47.104;15.432;2023-05-29T18:55:25;20.10;51.50
16116;DHT22;8162;47.104;15.432;2023-05-29T18:58:26;20.00;51.20
16116;DHT22;8162;47.104;15.432;2023-05-29T19:01:26;20.00;52.60
16116;DHT22;8162;47.104;15.432;2023-05-29T19:04:27;19.80;53.20
16116;DHT22;8162;47.104;15.432;2023-05-29T19:07:28;19.70;52.30
16116;DHT22;8162;47.104;15.432;2023-05-29T19:10:28;19.60;52.10
16116;DHT22;8162;47.104;15.432;2023-05-29T19:13:29;19.50;52.30
16116;DHT22;8162;47.104;15.432;2023-05-29T19:16:32;19.50;52.00
16116;DHT22;8162;47.104;15.432;2023-05-29T19:19:33;19.40;52.30
16116;DHT22;8162;47.104;15.432;2023-05-29T19:22:39;19.30;51.30
16116;DHT22;8162;47.104;15.432;2023-05-29T19:25:40;19.20;52.60
16116;DHT22;8162;47.104;15.432;2023-05-29T19:28:40;19.20;52.60
16116;DHT22;8162;47.104;15.432;2023-05-29T19:31:41;19.10;52.20
16116;DHT22;8162;47.104;15.432;2023-05-29T19:34:42;19.00;52.30
16116;DHT22;8162;47.104;15.432;2023-05-29T19:37:43;18.90;52.70
16116;DHT22;8162;47.104;15.432;2023-05-29T19:40:43;18.80;52.60
16116;DHT22;8162;47.104;15.432;2023-05-29T19:43:44;18.80;53.70
16116;DHT22;8162;47.104;15.432;2023-05-29T19:46:45;18.70;54.20
16116;DHT22;8162;47.104;15.432;2023-05-29T19:49:48;18.60;54.70
16116;DHT22;8162;47.104;15.432;2023-05-29T19:52:48;24.00;50.00
16116;DHT22;8162;47.104;15.432;2023-05-29T19:55:49;18.50;56.10
16116;DHT22;8162;47.104;15.432;2023-05-29T19:58:50;18.30;56.70
16116;DHT22;8162;47.104;15.432;2023-05-29T20:01:51;18.20;57.10
16116;DHT22;8162;47.104;15.432;2023-05-29T20:04:51;18.10;57.80
16116;DHT22;8162;47.104;15.432;2023-05-29T20:07:52;18.00;57.80
16116;DHT22;8162;47.104;15.432;2023-05-29T20:10:55;24.00;50.00
16116;DHT22;8162;47.104;15.432;2023-05-29T20:13:56;17.90;58.50
16116;DHT22;8162;47.104;15.432;2023-05-29T20:16:57;17.80;58.70
16116;DHT22;8162;47.104;15.432;2023-05-29T20:19:57;17.80;58.60
16116;DHT22;8162;47.104;15.432;2023-05-29T20:22:58;17.60;58.60
16116;DHT22;8162;47.104;15.432;2023-05-29T20:25:59;17.50;58.30
16116;DHT22;8162;47.104;15.432;2023-05-29T20:28:59;17.50;58.60
16116;DHT22;8162;47.104;15.432;2023-05-29T20:32:00;17.40;59.10
16116;DHT22;8162;47.104;15.432;2023-05-29T20:35:01;17.30;58.80
16116;DHT22;8162;47.104;15.432;2023-05-29T20:38:01;17.20;58.60
16116;DHT22;8162;47.104;15.432;2023-05-29T20:41:02;17.20;57.80
16116;DHT22;8162;47.104;15.432;2023-05-29T20:44:07;17.20;58.50
16116;DHT22;8162;47.104;15.432;2023-05-29T20:47:08;17.20;58.30
16116;DHT22;8162;47.104;15.432;2023-05-29T20:50:10;17.10;58.00
16116;DHT22;8162;47.104;15.432;2023-05-29T20:53:12;17.00;58.00
16116;DHT22;8162;47.104;15.432;2023-05-29T20:56:12;16.90;58.10
16116;DHT22;8162;47.104;15.432;2023-05-29T20:59:13;16.90;58.50
16116;DHT22;8162;47.104;15.432;2023-05-29T21:02:15;16.90;58.10
16116;DHT22;8162;47.104;15.432;2023-05-29T21:05:16;16.90;58.10
16116;DHT22;8162;47.104;15.432;2023-05-29T21:08:17;16.80;58.30
16116;DHT22;8162;47.104;15.432;2023-05-29T21:11:18;16.70;58.40
16116;DHT22;8162;47.104;15.432;2023-05-29T21:14:19;16.70;58.90
16116;DHT22;8162;47.104;15.432;2023-05-29T21:17:20;16.60;59.50
16116;DHT22;8162;47.104;15.432;2023-05-29T21:20:20;16.60;59.80
16116;DHT22;8162;47.104;15.432;2023-05-29T21:23:21;16.40;59.80
16116;DHT22;8162;47.104;15.432;2023-05-29T21:26:22;16.40;59.90
16116;DHT22;8162;47.104;15.432;2023-05-29T21:29:22;16.40;60.00
16116;DHT22;8162;47.104;15.432;2023-05-29T21:32:24;16.40;60.10
16116;DHT22;8162;47.104;15.432;2023-05-29T21:35:25;16.20;60.10
16116;DHT22;8162;47.104;15.432;2023-05-29T21:38:26;16.20;60.60
16116;DHT22;8162;47.104;15.432;2023-05-29T21:41:26;16.10;61.30
16116;DHT22;8162;47.104;15.432;2023-05-29T21:44:27;16.00;62.20
16116;DHT22;8162;47.104;15.432;2023-05-29T21:47:30;16.00;62.00
16116;DHT22;8162;47.104;15.432;2023-05-29T21:50:31;16.00;61.60
16116;DHT22;8162;47.104;15.432;2023-05-29T21:53:32;15.90;60.90
16116;DHT22;8162;47.104;15.432;2023-05-29T21:56:33;15.80;61.50
16116;DHT22;8162;47.104;15.432;2023-05-29T21:59:33;15.80;61.90
16116;DHT22;8162;47.104;15.432;2023-05-29T22:02:34;15.80;62.20
16116;DHT22;8162;47.104;15.432;2023-05-29T22:05:35;15.80;62.00
16116;DHT22;8162;47.104;15.432;2023-05-29T22:08:45;15.70;62.00
16116;DHT22;8162;47.104;15.432;2023-05-29T22:11:46;15.60;62.00
16116;DHT22;8162;47.104;15.432;2023-05-29T22:14:48;15.60;62.10
16116;DHT22;8162;47.104;15.432;2023-05-29T22:17:49;15.60;62.80
16116;DHT22;8162;47.104;15.432;2023-05-29T22:20:53;15.50;63.00
16116;DHT22;8162;47.104;15.432;2023-05-29T22:23:54;15.50;62.90
16116;DHT22;8162;47.104;15.432;2023-05-29T22:26:55;15.50;63.30
16116;DHT22;8162;47.104;15.432;2023-05-29T22:29:56;15.40;63.90
16116;DHT22;8162;47.104;15.432;2023-05-29T22:32:57;15.30;63.30
16116;DHT22;8162;47.104;15.432;2023-05-29T22:35:58;15.30;64.00
16116;DHT22;8162;47.104;15.432;2023-05-29T22:38:59;15.30;64.60
16116;DHT22;8162;47.104;15.432;2023-05-29T22:41:59;15.20;64.90
16116;DHT22;8162;47.104;15.432;2023-05-29T22:45:00;15.20;64.80
16116;DHT22;8162;47.104;15.432;2023-05-29T22:48:01;15.10;65.10
16116;DHT22;8162;47.104;15.432;2023-05-29T22:51:02;15.00;65.40
16116;DHT22;8162;47.104;15.432;2023-05-29T22:54:04;15.00;66.00
16116;DHT22;8162;47.104;15.432;2023-05-29T22:57:06;15.00;66.40
16116;DHT22;8162;47.104;15.432;2023-05-29T23:00:07;15.00;66.20
16116;DHT22;8162;47.104;15.432;2023-05-29T23:03:09;14.90;67.00
16116;DHT22;8162;47.104;15.432;2023-05-29T23:06:09;14.90;66.80
16116;DHT22;8162;47.104;15.432;2023-05-29T23:09:11;14.90;67.10
16116;DHT22;8162;47.104;15.432;2023-05-29T23:12:12;14.80;67.00
16116;DHT22;8162;47.104;15.432;2023-05-29T23:15:12;14.80;67.50
16116;DHT22;8162;47.104;15.432;2023-05-29T23:18:13;14.80;67.40
16116;DHT22;8162;47.104;15.432;2023-05-29T23:21:14;14.80;67.50
16116;DHT22;8162;47.104;15.432;2023-05-29T23:24:15;14.70;67.60
16116;DHT22;8162;47.104;15.432;2023-05-29T23:27:16;14.70;67.90
16116;DHT22;8162;47.104;15.432;2023-05-29T23:30:16;14.70;68.20
16116;DHT22;8162;47.104;15.432;2023-05-29T23:33:17;14.60;68.50
16116;DHT22;8162;47.104;15.432;2023-05-29T23:36:18;14.60;68.60
16116;DHT22;8162;47.104;15.432;2023-05-29T23:39:18;14.60;68.40
16116;DHT22;8162;47.104;15.432;2023-05-29T23:42:19;14.50;68.60
16116;DHT22;8162;47.104;15.432;2023-05-29T23:45:20;14.50;68.90
16116;DHT22;8162;47.104;15.432;2023-05-29T23:48:21;14.40;69.20
16116;DHT22;8162;47.104;15.432;2023-05-29T23:51:22;14.40;69.00
16116;DHT22;8162;47.104;15.432;2023-05-29T23:54:23;14.40;69.60
16116;DHT22;8162;47.104;15.432;2023-05-29T23:57:23;14.30;69.50
